sensor_id;sensor_type;location;lat;lon;timestamp;pressure;altitude;pressure_sealevel;temperature;humidity
61880;BME280;47817;52.798;27.544;2023-07-24T00:00:44;1016.5;;;22.4;48.1
61880;BME280;47817;52.798;27.544;2023-07-24T00:05:08;1016.4;;;22.4;48.3
61880;BME280;47817;52.798;27.544;2023-07-24T00:10:22;1016.3;;;22.4;48.6
61880;BME280;47817;52.798;27.544;2023-07-24T00:15:54;1016.3;;;22.3;48.7
61880;BME280;47817;52.798;27.544;2023-07-24T00:20:44;1016.3;;;22.3;49
61880;BME280;47817;52.798;27.544;2023-07-24T00:25:24;1016.2;;;22.3;49.2
61880;BME280;47817;52.798;27.544;2023-07-24T00:30:54;1016.1;;;22.3;49.2
61880;BME280;47817;52.798;27.544;2023-07-24T00:35:44;1016.1;;;22.3;49
61880;BME280;47817;52.798;27.544;2023-07-24T00:40:08;1016;;;22.3;49.1
61880;BME280;47817;52.798;27.544;2023-07-24T00:45:26;1016;;;22.2;49.5
61880;BME280;47817;52.798;27.544;2023-07-24T00:50:08;1015.9;;;22.1;49.7
61880;BME280;47817;52.798;27.544;2023-07-24T00:55:08;1016;;;22;49.9
61880;BME280;47817;52.798;27.544;2023-07-24T01:00:40;1015.9;;;21.9;50.1
61880;BME280;47817;52.798;27.544;2023-07-24T01:05:54;1015.9;;;21.9;50.3
61880;BME280;47817;52.798;27.544;2023-07-24T01:10:36;1015.8;;;21.8;50.3
61880;BME280;47817;52.798;27.544;2023-07-24T01:15:54;1015.8;;;21.7;50.6
61880;BME280;47817;52.798;27.544;2023-07-24T01:20:22;1015.7;;;21.6;50.8
61880;BME280;47817;52.798;27.544;2023-07-24T01:25:10;1015.7;;;21.6;50.9
61880;BME280;47817;52.798;27.544;2023-07-24T01:30:08;1015.7;;;21.6;51.4
61880;BME280;47817;52.798;27.544;2023-07-24T01:35:30;1015.7;;;21.5;51.9
61880;BME280;47817;52.798;27.544;2023-07-24T01:40:26;1015.6;;;21.5;52
61880;BME280;47817;52.798;27.544;2023-07-24T01:45:36;1015.5;;;21.5;52.2
61880;BME280;47817;52.798;27.544;2023-07-24T01:50:36;1015.5;;;21.5;52.5
61880;BME280;47817;52.798;27.544;2023-07-24T01:55:22;1015.5;;;21.5;53.1
61880;BME280;47817;52.798;27.544;2023-07-24T02:00:22;1015.4;;;21.5;53.3
61880;BME280;47817;52.798;27.544;2023-07-24T02:05:40;1015.4;;;21.5;53.3
61880;BME280;47817;52.798;27.544;2023-07-24T02:10:54;1015.4;;;21.5;53.6
61880;BME280;47817;52.798;27.544;2023-07-24T02:15:08;1015.4;;;21.4;54
61880;BME280;47817;52.798;27.544;2023-07-24T02:20:24;1015.4;;;21.4;54
61880;BME280;47817;52.798;27.544;2023-07-24T02:25:54;1015.4;;;21.4;54.1
61880;BME280;47817;52.798;27.544;2023-07-24T02:30:08;1015.4;;;21.4;54.4
61880;BME280;47817;52.798;27.544;2023-07-24T02:35:08;1015.3;;;21.4;54.5
61880;BME280;47817;52.798;27.544;2023-07-24T02:40:32;1015.3;;;21.4;54.8
61880;BME280;47817;52.798;27.544;2023-07-24T02:45:54;1015.2;;;21.4;55.1
61880;BME280;47817;52.798;27.544;2023-07-24T02:50:54;1015.5;;;21.3;55.7
61880;BME280;47817;52.798;27.544;2023-07-24T02:55:22;1015.5;;;21.3;55.8
61880;BME280;47817;52.798;27.544;2023-07-24T03:00:54;1015.5;;;21.2;56
61880;BME280;47817;52.798;27.544;2023-07-24T03:05:08;1015.5;;;21.2;56
61880;BME280;47817;52.798;27.544;2023-07-24T03:10:14;1015.5;;;21.2;56.3
61880;BME280;47817;52.798;27.544;2023-07-24T03:15:40;1015.5;;;21.3;56.2
61880;BME280;47817;52.798;27.544;2023-07-24T03:20:36;1015.4;;;21.3;56.5
61880;BME280;47817;52.798;27.544;2023-07-24T03:25:44;1015.5;;;21.2;57
61880;BME280;47817;52.798;27.544;2023-07-24T03:30:40;1015.5;;;21.3;57.1
61880;BME280;47817;52.798;27.544;2023-07-24T03:35:54;1015.4;;;21.3;57.2
61880;BME280;47817;52.798;27.544;2023-07-24T03:40:26;1015.4;;;21.3;57.6
61880;BME280;47817;52.798;27.544;2023-07-24T03:45:54;1015.4;;;21.3;57.4
61880;BME280;47817;52.798;27.544;2023-07-24T03:50:30;1015.4;;;21.3;57.6
61880;BME280;47817;52.798;27.544;2023-07-24T03:55:54;1015.4;;;21.4;57.9
61880;BME280;47817;52.798;27.544;2023-07-24T04:00:54;1015.4;;;21.5;57.8
61880;BME280;47817;52.798;27.544;2023-07-24T04:05:54;1015.3;;;21.6;57.9
61880;BME280;47817;52.798;27.544;2023-07-24T04:10:08;1015.3;;;21.7;57.8
61880;BME280;47817;52.798;27.544;2023-07-24T04:15:14;1015.2;;;21.8;57.6
61880;BME280;47817;52.798;27.544;2023-07-24T04:20:44;1015.2;;;22;57.1
61880;BME280;47817;52.798;27.544;2023-07-24T04:25:44;1015.3;;;22.1;56.9
61880;BME280;47817;52.798;27.544;2023-07-24T04:30:36;1015.2;;;22.3;56.5
61880;BME280;47817;52.798;27.544;2023-07-24T04:35:22;1015.1;;;22.5;56.1
61880;BME280;47817;52.798;27.544;2023-07-24T04:40:54;1015;;;22.7;55.6
61880;BME280;47817;52.798;27.544;2023-07-24T04:45:30;1014.9;;;23.1;55
61880;BME280;47817;52.798;27.544;2023-07-24T04:50:14;1014.9;;;23.4;54.3
61880;BME280;47817;52.798;27.544;2023-07-24T04:55:54;1014.8;;;23.3;54.2
61880;BME280;47817;52.798;27.544;2023-07-24T05:00:44;1014.8;;;23.3;54.2
61880;BME280;47817;52.798;27.544;2023-07-24T05:05:26;1014.7;;;23.5;53.8
61880;BME280;47817;52.798;27.544;2023-07-24T05:10:16;1014.8;;;23.8;53.3
61880;BME280;47817;52.798;27.544;2023-07-24T05:15:08;1014.8;;;23.9;53.3
61880;BME280;47817;52.798;27.544;2023-07-24T05:20:24;1014.8;;;24;53.1
61880;BME280;47817;52.798;27.544;2023-07-24T05:25:34;1014.8;;;24.1;52.9
61880;BME280;47817;52.798;27.544;2023-07-24T05:30:54;1014.8;;;24;53
61880;BME280;47817;52.798;27.544;2023-07-24T05:35:57;1014.8;;;23.7;53.3
61880;BME280;47817;52.798;27.544;2023-07-24T05:40:55;1014.8;;;23.5;54
61880;BME280;47817;52.798;27.544;2023-07-24T05:45:14;1014.7;;;23.5;53.9
61880;BME280;47817;52.798;27.544;2023-07-24T05:50:22;1014.7;;;23.5;53.9
61880;BME280;47817;52.798;27.544;2023-07-24T05:55:08;1014.7;;;23.6;53.6
61880;BME280;47817;52.798;27.544;2023-07-24T06:00:30;1014.7;;;23.6;54.1
61880;BME280;47817;52.798;27.544;2023-07-24T06:05:26;1014.7;;;23.9;53.7
61880;BME280;47817;52.798;27.544;2023-07-24T06:10:37;1014.6;;;24.1;53.3
61880;BME280;47817;52.798;27.544;2023-07-24T06:15:24;1014.6;;;24.3;52.7
61880;BME280;47817;52.798;27.544;2023-07-24T06:20:22;1014.5;;;24.7;51.8
61880;BME280;47817;52.798;27.544;2023-07-24T06:25:48;1014.4;;;25.1;51.1
61880;BME280;47817;52.798;27.544;2023-07-24T06:30:54;1014.4;;;25.3;50.7
61880;BME280;47817;52.798;27.544;2023-07-24T06:35:44;1014.3;;;25.5;50.4
61880;BME280;47817;52.798;27.544;2023-07-24T06:40:20;1014.3;;;25.7;50
61880;BME280;47817;52.798;27.544;2023-07-24T06:45:36;1014.4;;;26;49.4
61880;BME280;47817;52.798;27.544;2023-07-24T06:50:54;1014.5;;;26.1;49.2
61880;BME280;47817;52.798;27.544;2023-07-24T06:55:08;1014.6;;;25.9;49.2
61880;BME280;47817;52.798;27.544;2023-07-24T07:00:09;1014.6;;;25.9;49.4
61880;BME280;47817;52.798;27.544;2023-07-24T07:05:38;1014.6;;;25.9;49.4
61880;BME280;47817;52.798;27.544;2023-07-24T07:10:55;1014.5;;;26;49.3
61880;BME280;47817;52.798;27.544;2023-07-24T07:15:54;1014.4;;;26.4;48.6
61880;BME280;47817;52.798;27.544;2023-07-24T07:20:14;1014.3;;;26.7;48.1
61880;BME280;47817;52.798;27.544;2023-07-24T07:25:52;1014.3;;;26.9;47.9
61880;BME280;47817;52.798;27.544;2023-07-24T07:30:08;1014.2;;;26.9;47.8
61880;BME280;47817;52.798;27.544;2023-07-24T07:35:14;1014.2;;;26.8;48
61880;BME280;47817;52.798;27.544;2023-07-24T07:40:40;1014.1;;;27;47.8
61880;BME280;47817;52.798;27.544;2023-07-24T07:45:30;1014;;;27;48
61880;BME280;47817;52.798;27.544;2023-07-24T07:50:44;1014.1;;;27.2;47.8
61880;BME280;47817;52.798;27.544;2023-07-24T07:55:40;1014.1;;;27.2;47.6
61880;BME280;47817;52.798;27.544;2023-07-24T08:00:09;1014;;;27;47.6
61880;BME280;47817;52.798;27.544;2023-07-24T08:05:08;1014;;;27.2;47.4
61880;BME280;47817;52.798;27.544;2023-07-24T08:10:54;1014;;;27.5;46.9
61880;BME280;47817;52.798;27.544;2023-07-24T08:15:24;1014.3;;;27;47.2
61880;BME280;47817;52.798;27.544;2023-07-24T08:20:08;1014.3;;;26.3;48.6
61880;BME280;47817;52.798;27.544;2023-07-24T08:25:55;1014.3;;;26.3;49
61880;BME280;47817;52.798;27.544;2023-07-24T08:30:56;1014.3;;;26.3;49.2
61880;BME280;47817;52.798;27.544;2023-07-24T08:35:25;1014.5;;;26.1;49.8
61880;BME280;47817;52.798;27.544;2023-07-24T08:40:22;1014.5;;;26;50.7
61880;BME280;47817;52.798;27.544;2023-07-24T08:45:44;1014.4;;;25.9;50.9
61880;BME280;47817;52.798;27.544;2023-07-24T08:50:44;1014.4;;;26;50.7
61880;BME280;47817;52.798;27.544;2023-07-24T08:55:26;1014.5;;;26.1;50.7
61880;BME280;47817;52.798;27.544;2023-07-24T09:00:15;1014.5;;;26.1;51
61880;BME280;47817;52.798;27.544;2023-07-24T09:05:54;1014.4;;;25.9;51.3
61880;BME280;47817;52.798;27.544;2023-07-24T09:10:08;1014.2;;;26.3;50.7
61880;BME280;47817;52.798;27.544;2023-07-24T09:15:38;1014.2;;;26.9;49.3
61880;BME280;47817;52.798;27.544;2023-07-24T09:20:54;1014.1;;;27.2;48.9
61880;BME280;47817;52.798;27.544;2023-07-24T09:25:44;1014.1;;;27.6;48.1
61880;BME280;47817;52.798;27.544;2023-07-24T09:30:26;1014;;;27.7;48.2
61880;BME280;47817;52.798;27.544;2023-07-24T09:35:22;1013.9;;;27.8;48.1
61880;BME280;47817;52.798;27.544;2023-07-24T09:40:14;1013.7;;;27.9;47.9
61880;BME280;47817;52.798;27.544;2023-07-24T09:45:24;1013.7;;;28.3;47.4
61880;BME280;47817;52.798;27.544;2023-07-24T09:50:30;1013.8;;;28.8;46.3
61880;BME280;47817;52.798;27.544;2023-07-24T09:55:56;1013.8;;;29.1;45.6
61880;BME280;47817;52.798;27.544;2023-07-24T10:00:36;1014;;;28.5;46.1
61880;BME280;47817;52.798;27.544;2023-07-24T10:05:54;1014.1;;;27.7;47.1
61880;BME280;47817;52.798;27.544;2023-07-24T10:10:22;1014.1;;;27.6;47.2
61880;BME280;47817;52.798;27.544;2023-07-24T10:15:16;1014;;;27.6;47.4
61880;BME280;47817;52.798;27.544;2023-07-24T10:20:15;1013.9;;;27.9;47.5
61880;BME280;47817;52.798;27.544;2023-07-24T10:25:08;1013.8;;;28.4;46.6
61880;BME280;47817;52.798;27.544;2023-07-24T10:30:28;1013.7;;;28.8;45.5
61880;BME280;47817;52.798;27.544;2023-07-24T10:35:36;1013.7;;;29.1;44.8
61880;BME280;47817;52.798;27.544;2023-07-24T10:40:22;1013.5;;;29.2;44.6
61880;BME280;47817;52.798;27.544;2023-07-24T10:45:09;1013.5;;;29.4;44.5
61880;BME280;47817;52.798;27.544;2023-07-24T10:50:08;1013.5;;;29.3;44.3
61880;BME280;47817;52.798;27.544;2023-07-24T10:55:52;1013.5;;;29.3;44.3
61880;BME280;47817;52.798;27.544;2023-07-24T11:00:55;1013.5;;;29.8;43.5
61880;BME280;47817;52.798;27.544;2023-07-24T11:05:26;1013.5;;;29.9;43.1
61880;BME280;47817;52.798;27.544;2023-07-24T11:10:36;1013.5;;;29.5;43.3
61880;BME280;47817;52.798;27.544;2023-07-24T11:15:55;1013.5;;;29.8;42.9
61880;BME280;47817;52.798;27.544;2023-07-24T11:20:15;1013.5;;;30.1;42.5
61880;BME280;47817;52.798;27.544;2023-07-24T11:25:14;1013.5;;;30.2;42.3
61880;BME280;47817;52.798;27.544;2023-07-24T11:30:24;1013.5;;;30.9;41.6
61880;BME280;47817;52.798;27.544;2023-07-24T11:35:54;1013.4;;;31.8;40.2
61880;BME280;47817;52.798;27.544;2023-07-24T11:40:54;1013.4;;;31.8;39.6
61880;BME280;47817;52.798;27.544;2023-07-24T11:45:56;1013.4;;;31.8;39.3
61880;BME280;47817;52.798;27.544;2023-07-24T11:50:56;1013.4;;;32.1;38.8
61880;BME280;47817;52.798;27.544;2023-07-24T11:55:09;1013.4;;;32.4;38.5
61880;BME280;47817;52.798;27.544;2023-07-24T12:00:57;1013.3;;;32.8;37.8
61880;BME280;47817;52.798;27.544;2023-07-24T12:05:37;1013.3;;;33.1;37.1
61880;BME280;47817;52.798;27.544;2023-07-24T12:10:57;1013.3;;;32.7;36.8
61880;BME280;47817;52.798;27.544;2023-07-24T12:15:46;1013.3;;;31.4;38.2
61880;BME280;47817;52.798;27.544;2023-07-24T12:20:40;1013.3;;;30.6;39.4
61880;BME280;47817;52.798;27.544;2023-07-24T12:25:08;1013.2;;;29.9;40.8
61880;BME280;47817;52.798;27.544;2023-07-24T12:30:14;1013.2;;;29.9;41.6
61880;BME280;47817;52.798;27.544;2023-07-24T12:35:56;1013.2;;;29.6;42.6
61880;BME280;47817;52.798;27.544;2023-07-24T12:40:30;1013.3;;;29.9;42.4
61880;BME280;47817;52.798;27.544;2023-07-24T12:45:22;1013.3;;;30.8;41.1
61880;BME280;47817;52.798;27.544;2023-07-24T12:50:56;1013.2;;;31.7;39.7
61880;BME280;47817;52.798;27.544;2023-07-24T12:55:56;1013.3;;;32.6;37.5
61880;BME280;47817;52.798;27.544;2023-07-24T13:00:09;1013.1;;;32.7;35.7
61880;BME280;47817;52.798;27.544;2023-07-24T13:05:14;1013.1;;;32.1;35.2
61880;BME280;47817;52.798;27.544;2023-07-24T13:10:46;1013.1;;;33;33.6
61880;BME280;47817;52.798;27.544;2023-07-24T13:15:44;1013;;;34;32
61880;BME280;47817;52.798;27.544;2023-07-24T13:20:26;1012.9;;;34;32
61880;BME280;47817;52.798;27.544;2023-07-24T13:25:08;1012.8;;;34.4;30.9
61880;BME280;47817;52.798;27.544;2023-07-24T13:30:54;1012.8;;;33.3;31.7
61880;BME280;47817;52.798;27.544;2023-07-24T13:35:24;1012.8;;;32.2;33.3
61880;BME280;47817;52.798;27.544;2023-07-24T13:40:54;1012.8;;;31.7;34.2
61880;BME280;47817;52.798;27.544;2023-07-24T13:45:56;1012.8;;;31;35.3
61880;BME280;47817;52.798;27.544;2023-07-24T13:50:46;1012.8;;;30.4;36.2
61880;BME280;47817;52.798;27.544;2023-07-24T13:55:28;1012.6;;;31.4;35.5
61880;BME280;47817;52.798;27.544;2023-07-24T14:00:09;1012.5;;;35;31.5
61880;BME280;47817;52.798;27.544;2023-07-24T14:05:15;1012.4;;;38.4;27.9
61880;BME280;47817;52.798;27.544;2023-07-24T14:10:09;1012.3;;;40.9;25.6
61880;BME280;47817;52.798;27.544;2023-07-24T14:15:30;1012.3;;;41.3;24.4
61880;BME280;47817;52.798;27.544;2023-07-24T14:20:57;1012.4;;;39.5;25.8
61880;BME280;47817;52.798;27.544;2023-07-24T14:25:38;1012.4;;;37.9;26.8
61880;BME280;47817;52.798;27.544;2023-07-24T14:30:56;1012.4;;;36.4;28.5
61880;BME280;47817;52.798;27.544;2023-07-24T14:35:40;1012.5;;;34.7;30
61880;BME280;47817;52.798;27.544;2023-07-24T14:40:14;1012.5;;;33.8;31.1
61880;BME280;47817;52.798;27.544;2023-07-24T14:45:14;1012.4;;;35.2;29.9
61880;BME280;47817;52.798;27.544;2023-07-24T14:50:09;1012.3;;;35.5;29.5
61880;BME280;47817;52.798;27.544;2023-07-24T14:55:28;1012.2;;;36.2;28.8
61880;BME280;47817;52.798;27.544;2023-07-24T15:00:38;1012.1;;;38.2;26.3
61880;BME280;47817;52.798;27.544;2023-07-24T15:05:38;1011.9;;;41.4;23.4
61880;BME280;47817;52.798;27.544;2023-07-24T15:10:15;1011.8;;;43.4;21.5
61880;BME280;47817;52.798;27.544;2023-07-24T15:15:09;1011.7;;;44.9;20.3
61880;BME280;47817;52.798;27.544;2023-07-24T15:20:57;1011.6;;;46.1;18.8
61880;BME280;47817;52.798;27.544;2023-07-24T15:25:57;1011.6;;;46.9;17.8
61880;BME280;47817;52.798;27.544;2023-07-24T15:30:29;1011.6;;;46.8;17.3
61880;BME280;47817;52.798;27.544;2023-07-24T15:35:38;1011.5;;;46.1;17.2
61880;BME280;47817;52.798;27.544;2023-07-24T15:40:56;1011.4;;;46.6;16.9
61880;BME280;47817;52.798;27.544;2023-07-24T15:45:28;1011.5;;;47.6;16.5
61880;BME280;47817;52.798;27.544;2023-07-24T15:50:14;1011.5;;;45.9;17.3
61880;BME280;47817;52.798;27.544;2023-07-24T15:55:34;1011.5;;;44.2;18.4
61880;BME280;47817;52.798;27.544;2023-07-24T16:00:57;1011.6;;;43.4;18.9
61880;BME280;47817;52.798;27.544;2023-07-24T16:05:57;1011.6;;;42.7;19.4
61880;BME280;47817;52.798;27.544;2023-07-24T16:10:31;1011.6;;;41.7;20.3
61880;BME280;47817;52.798;27.544;2023-07-24T16:15:57;1011.6;;;41.3;20.8
61880;BME280;47817;52.798;27.544;2023-07-24T16:20:09;1011.7;;;39.7;22.3
61880;BME280;47817;52.798;27.544;2023-07-24T16:25:57;1011.8;;;39.1;23.1
61880;BME280;47817;52.798;27.544;2023-07-24T16:30:25;1011.8;;;39.5;22.9
61880;BME280;47817;52.798;27.544;2023-07-24T16:35:57;1011.9;;;37.9;24.1
61880;BME280;47817;52.798;27.544;2023-07-24T16:40:47;1011.9;;;35.5;26.6
61880;BME280;47817;52.798;27.544;2023-07-24T16:45:41;1012;;;34.1;28.5
61880;BME280;47817;52.798;27.544;2023-07-24T16:50:09;1011.9;;;35.2;27.6
61880;BME280;47817;52.798;27.544;2023-07-24T16:55:15;1011.8;;;35.5;27.7
61880;BME280;47817;52.798;27.544;2023-07-24T17:00:57;1011.9;;;34;29.6
61880;BME280;47817;52.798;27.544;2023-07-24T17:05:31;1011.9;;;32.5;31.7
61880;BME280;47817;52.798;27.544;2023-07-24T17:10:15;1011.9;;;32.1;32.4
61880;BME280;47817;52.798;27.544;2023-07-24T17:15:11;1011.8;;;33.1;31.4
61880;BME280;47817;52.798;27.544;2023-07-24T17:20:57;1011.8;;;34.3;30
61880;BME280;47817;52.798;27.544;2023-07-24T17:25:09;1011.8;;;35;29.2
61880;BME280;47817;52.798;27.544;2023-07-24T17:30:09;1011.8;;;34.3;30
61880;BME280;47817;52.798;27.544;2023-07-24T17:35:47;1011.8;;;33.8;30.7
61880;BME280;47817;52.798;27.544;2023-07-24T17:40:47;1011.7;;;34.6;30
61880;BME280;47817;52.798;27.544;2023-07-24T17:45:29;1011.7;;;33.9;30.8
61880;BME280;47817;52.798;27.544;2023-07-24T17:50:23;1011.8;;;33;31.9
61880;BME280;47817;52.798;27.544;2023-07-24T17:55:57;1011.8;;;31.9;33.2
61880;BME280;47817;52.798;27.544;2023-07-24T18:00:31;1011.9;;;30.7;34.8
61880;BME280;47817;52.798;27.544;2023-07-24T18:05:09;1011.9;;;29.6;36.2
61880;BME280;47817;52.798;27.544;2023-07-24T18:10:57;1011.9;;;28.9;37.3
61880;BME280;47817;52.798;27.544;2023-07-24T18:15:47;1011.9;;;28.3;38.8
61880;BME280;47817;52.798;27.544;2023-07-24T18:20:29;1011.8;;;27.8;40.6
61880;BME280;47817;52.798;27.544;2023-07-24T18:25:15;1011.9;;;27.3;41.4
61880;BME280;47817;52.798;27.544;2023-07-24T18:30:09;1012;;;27;42.4
61880;BME280;47817;52.798;27.544;2023-07-24T18:35:25;1012.1;;;26.8;42.9
61880;BME280;47817;52.798;27.544;2023-07-24T18:40:09;1012.1;;;26.6;43.4
61880;BME280;47817;52.798;27.544;2023-07-24T18:45:57;1012.1;;;26.4;43.6
61880;BME280;47817;52.798;27.544;2023-07-24T18:50:39;1012.1;;;26.3;45.1
61880;BME280;47817;52.798;27.544;2023-07-24T18:55:57;1012.1;;;26.2;46.2
61880;BME280;47817;52.798;27.544;2023-07-24T19:00:09;1012.1;;;26.1;46.9
61880;BME280;47817;52.798;27.544;2023-07-24T19:05:09;1012;;;26;47.3
61880;BME280;47817;52.798;27.544;2023-07-24T19:10:09;1012;;;26;47.7
61880;BME280;47817;52.798;27.544;2023-07-24T19:15:25;1012;;;25.9;47.7
61880;BME280;47817;52.798;27.544;2023-07-24T19:20:09;1012;;;25.9;47.6
61880;BME280;47817;52.798;27.544;2023-07-24T19:25:39;1011.9;;;25.8;48.1
61880;BME280;47817;52.798;27.544;2023-07-24T19:30:39;1011.9;;;25.6;49.2
61880;BME280;47817;52.798;27.544;2023-07-24T19:35:09;1011.8;;;25.5;49.8
61880;BME280;47817;52.798;27.544;2023-07-24T19:40:09;1011.8;;;25.4;50.1
61880;BME280;47817;52.798;27.544;2023-07-24T19:45:57;1011.8;;;25.3;49.9
61880;BME280;47817;52.798;27.544;2023-07-24T19:50:47;1011.9;;;25.2;49.8
61880;BME280;47817;52.798;27.544;2023-07-24T19:55:09;1011.9;;;25.2;50
61880;BME280;47817;52.798;27.544;2023-07-24T20:00:33;1011.8;;;25.1;50.5
61880;BME280;47817;52.798;27.544;2023-07-24T20:05:58;1011.7;;;24.9;51
61880;BME280;47817;52.798;27.544;2023-07-24T20:10:23;1011.8;;;24.8;51.7
61880;BME280;47817;52.798;27.544;2023-07-24T20:15:09;1011.7;;;24.7;53.1
61880;BME280;47817;52.798;27.544;2023-07-24T20:20:43;1011.7;;;24.6;54
61880;BME280;47817;52.798;27.544;2023-07-24T20:25:39;1011.7;;;24.5;54.8
61880;BME280;47817;52.798;27.544;2023-07-24T20:30:47;1011.7;;;24.5;53.4
61880;BME280;47817;52.798;27.544;2023-07-24T20:35:41;1011.7;;;24.4;54
61880;BME280;47817;52.798;27.544;2023-07-24T20:40:57;1011.7;;;24.2;55.4
61880;BME280;47817;52.798;27.544;2023-07-24T20:45:09;1011.7;;;24.1;56.7
61880;BME280;47817;52.798;27.544;2023-07-24T20:50:57;1011.7;;;24;57.5
61880;BME280;47817;52.798;27.544;2023-07-24T20:55:09;1011.6;;;23.8;58.7
61880;BME280;47817;52.798;27.544;2023-07-24T21:00:49;1011.5;;;23.8;58.9
61880;BME280;47817;52.798;27.544;2023-07-24T21:05:47;1011.5;;;23.8;59.1
61880;BME280;47817;52.798;27.544;2023-07-24T21:10:25;1011.5;;;23.8;58.9
61880;BME280;47817;52.798;27.544;2023-07-24T21:15:15;1011.5;;;23.8;59.1
61880;BME280;47817;52.798;27.544;2023-07-24T21:20:29;1011.5;;;23.8;59.6
61880;BME280;47817;52.798;27.544;2023-07-24T21:25:49;1011.5;;;23.9;60
61880;BME280;47817;52.798;27.544;2023-07-24T21:30:25;1011.4;;;23.8;60.6
61880;BME280;47817;52.798;27.544;2023-07-24T21:35:29;1011.3;;;23.7;62.7
61880;BME280;47817;52.798;27.544;2023-07-24T21:40:19;1011.4;;;23.6;62.4
61880;BME280;47817;52.798;27.544;2023-07-24T21:45:57;1011.4;;;23.5;63.4
61880;BME280;47817;52.798;27.544;2023-07-24T21:50:47;1011.4;;;23.5;63.6
61880;BME280;47817;52.798;27.544;2023-07-24T21:55:15;1011.5;;;23.4;64.3
61880;BME280;47817;52.798;27.544;2023-07-24T22:00:52;1011.5;;;23.4;64.6
61880;BME280;47817;52.798;27.544;2023-07-24T22:05:47;1011.4;;;23.4;65.7
61880;BME280;47817;52.798;27.544;2023-07-24T22:10:09;1011.3;;;23.4;66.3
61880;BME280;47817;52.798;27.544;2023-07-24T22:15:13;1011.2;;;23.5;67.1
61880;BME280;47817;52.798;27.544;2023-07-24T22:22:11;1011.1;;;23.5;66.9
61880;BME280;47817;52.798;27.544;2023-07-24T22:25:31;1011;;;23.4;67.5
61880;BME280;47817;52.798;27.544;2023-07-24T22:30:31;1011;;;23.4;68
61880;BME280;47817;52.798;27.544;2023-07-24T22:40:39;1010.8;;;23.4;67.9
61880;BME280;47817;52.798;27.544;2023-07-24T22:45:11;1010.6;;;23.3;68.7
61880;BME280;47817;52.798;27.544;2023-07-24T22:50:23;1010.7;;;23.3;68.8
61880;BME280;47817;52.798;27.544;2023-07-24T22:55:10;1010.6;;;23.3;68.2
61880;BME280;47817;52.798;27.544;2023-07-24T23:00:25;1010.4;;;23.2;68.6
61880;BME280;47817;52.798;27.544;2023-07-24T23:10:54;1010.3;;;23;69.1
61880;BME280;47817;52.798;27.544;2023-07-24T23:15:33;1010.3;;;22.9;69.3
61880;BME280;47817;52.798;27.544;2023-07-24T23:21:00;1010.4;;;22.9;69.5
61880;BME280;47817;52.798;27.544;2023-07-24T23:25:13;1010.3;;;22.8;70.3
61880;BME280;47817;52.798;27.544;2023-07-24T23:30:09;1010.3;;;22.6;71.5
61880;BME280;47817;52.798;27.544;2023-07-24T23:35:15;1010.3;;;22.6;71.4
61880;BME280;47817;52.798;27.544;2023-07-24T23:40:10;1010.3;;;22.5;71.5
61880;BME280;47817;52.798;27.544;2023-07-24T23:45:23;1010.3;;;22.4;71.7
61880;BME280;47817;52.798;27.544;2023-07-24T23:50:39;1010.2;;;22.4;71.7
61880;BME280;47817;52.798;27.544;2023-07-24T23:55:31;1010.2;;;22.4;71.7
